Ina Theresa — V7UJ2 — position and weather

sailwx.info

Track history (hours):
 
Tides and Currents Weather Stations Pressure Air Temp Water Temp Dewpoint Dewpoint Depression Visibility Wind Speed Wind Dir Waves Ship Positions

Ina Theresa

Last reported at 2014-Oct-27 12:28 UTC. Time now 2014-Oct-31 19:29 UTC.
Position N 37°15' E 024°04'.

Length 122 m; draft 5.5 m.

Type: Tanker. MMSI: 538004548.

Date/timePositionNaut miles runAvg speedWind from/ knotsBaromVisibWave heightAir tempDewpointWater temp
2014-Oct-27 12:28N 37°15' E 024°04'1213.5
2014-Oct-27 11:33N 37°24' E 024°15'1313.1
2014-Oct-27 10:33N 37°34' E 024°26'1312.4
2014-Oct-27 09:33N 37°46' E 024°32'2613.1
2014-Oct-27 07:33N 38°10' E 024°44'11112.3
2014-Oct-26 22:33N 39°49' E 025°46'6212.4
2014-Oct-26 17:31N 40°28' E 026°50'  
2014-Oct-21 21:31N 40°43' E 028°16'1 0.7
2014-Oct-21 20:14N 40°42' E 028°15'0 0.4
2014-Oct-21 19:33N 40°42' E 028°15'1 1.3
2014-Oct-21 18:33N 40°43' E 028°13'1 0.6
2014-Oct-21 17:34N 40°42' E 028°14'0 0.4
2014-Oct-21 16:34N 40°42' E 028°14'0 0.5
2014-Oct-21 15:34N 40°42' E 028°15'0 0.4
2014-Oct-21 14:33N 40°42' E 028°15'0 0.2
2014-Oct-21 13:34N 40°42' E 028°16'0 0.1
2014-Oct-21 12:33N 40°42' E 028°15'1 0.3
2014-Oct-21 10:33N 40°43' E 028°14'1 0.3
2014-Oct-21 09:06N 40°43' E 028°15'1 1.7
2014-Oct-21 08:27N 40°44' E 028°16'1 0.6
2014-Oct-21 06:13N 40°43' E 028°14'1 0.2
2014-Oct-21 01:23N 40°44' E 028°15'1 0.3
2014-Oct-20 21:31N 40°43' E 028°15'0 0.2
2014-Oct-20 20:09N 40°43' E 028°15'0 0.2
2014-Oct-20 18:32N 40°43' E 028°15'0 0.3
2014-Oct-20 17:33N 40°43' E 028°14'0 0.3
2014-Oct-20 16:22N 40°43' E 028°14'0 0.5
2014-Oct-20 15:34N 40°43' E 028°14'20 0.4
2014-Oct-18 18:16N 40°53' E 028°36'912.5
2014-Oct-18 17:32N 40°55' E 028°48'4 0.5
2014-Oct-18 09:18N 40°57' E 028°53'0 0.6
2014-Oct-18 08:33N 40°57' E 028°54'4 3.9
2014-Oct-18 07:34N 40°53' E 028°54'  
Track history (hours):
 
Tides and Currents Weather Stations Pressure Air Temp Water Temp Dewpoint Dewpoint Depression Visibility Wind Speed Wind Dir Waves Ship Positions

Ina Theresa

Last reported at 2014-Oct-27 12:28 UTC. Time now 2014-Oct-31 19:29 UTC.
Position N 37°15' E 024°04'.

Length 122 m; draft 5.5 m.

Type: Tanker. MMSI: 538004548.

Date/timePositionNaut miles runAvg speedWind from/ knotsBaromVisibWave heightAir tempDewpointWater temp
2014-Oct-27 12:28N 37°15' E 024°04'1213.5
2014-Oct-27 11:33N 37°24' E 024°15'1313.1
2014-Oct-27 10:33N 37°34' E 024°26'1312.4
2014-Oct-27 09:33N 37°46' E 024°32'2613.1
2014-Oct-27 07:33N 38°10' E 024°44'11112.3
2014-Oct-26 22:33N 39°49' E 025°46'6212.4
2014-Oct-26 17:31N 40°28' E 026°50'  
2014-Oct-21 21:31N 40°43' E 028°16'1 0.7
2014-Oct-21 20:14N 40°42' E 028°15'0 0.4
2014-Oct-21 19:33N 40°42' E 028°15'1 1.3
2014-Oct-21 18:33N 40°43' E 028°13'1 0.6
2014-Oct-21 17:34N 40°42' E 028°14'0 0.4
2014-Oct-21 16:34N 40°42' E 028°14'0 0.5
2014-Oct-21 15:34N 40°42' E 028°15'0 0.4
2014-Oct-21 14:33N 40°42' E 028°15'0 0.2
2014-Oct-21 13:34N 40°42' E 028°16'0 0.1
2014-Oct-21 12:33N 40°42' E 028°15'1 0.3
2014-Oct-21 10:33N 40°43' E 028°14'1 0.3
2014-Oct-21 09:06N 40°43' E 028°15'1 1.7
2014-Oct-21 08:27N 40°44' E 028°16'1 0.6
2014-Oct-21 06:13N 40°43' E 028°14'1 0.2
2014-Oct-21 01:23N 40°44' E 028°15'1 0.3
2014-Oct-20 21:31N 40°43' E 028°15'0 0.2
2014-Oct-20 20:09N 40°43' E 028°15'0 0.2
2014-Oct-20 18:32N 40°43' E 028°15'0 0.3
2014-Oct-20 17:33N 40°43' E 028°14'0 0.3
2014-Oct-20 16:22N 40°43' E 028°14'0 0.5
2014-Oct-20 15:34N 40°43' E 028°14'20 0.4
2014-Oct-18 18:16N 40°53' E 028°36'912.5
2014-Oct-18 17:32N 40°55' E 028°48'4 0.5
2014-Oct-18 09:18N 40°57' E 028°53'0 0.6
2014-Oct-18 08:33N 40°57' E 028°54'4 3.9
2014-Oct-18 07:34N 40°53' E 028°54'  

Dump ship's entire track history